Time;durP1;ratioP1;P1;durP2;ratioP2;P2;SDS_P1;SDS_P2;PMS_P1;PMS_P2;Temp;Humidity;BMP_temperature;BMP_pressure;BME280_temperature;BME280_humidity;BME280_pressure;Samples;Min_cycle;Max_cycle;Signal;HPM_P1;HPM_P2
2024/01/08 00:00:39;;;;;;;22.73;7.60;;;;;;;-10.56;74.84;100998.72;4224211;28;21118;-71
2024/01/08 00:03:05;;;;;;;21.53;6.50;;;;;;;-10.52;74.85;100991.75;4252746;28;20239;-71
2024/01/08 00:05:36;;;;;;;24.90;7.10;;;;;;;-10.45;74.30;101000.47;4253605;28;25533;-70
2024/01/08 00:08:03;;;;;;;26.43;7.83;;;;;;;-10.53;74.72;100992.63;4249637;28;21750;-71
2024/01/08 00:10:30;;;;;;;30.60;8.00;;;;;;;-10.53;74.64;101003.09;4256342;28;20256;-71
2024/01/08 00:12:56;;;;;;;23.17;8.17;;;;;;;-10.62;75.12;100992.63;4260684;28;22978;-71
2024/01/08 00:15:23;;;;;;;21.10;6.50;;;;;;;-10.64;74.44;100991.75;4260116;28;21705;-72
2024/01/08 00:17:50;;;;;;;21.50;7.67;;;;;;;-10.74;75.23;101003.94;4260320;28;20324;-71
2024/01/08 00:20:17;;;;;;;19.67;6.37;;;;;;;-10.78;75.06;101003.06;4249554;28;20229;-68
2024/01/08 00:22:44;;;;;;;17.10;6.17;;;;;;;-10.67;74.84;101005.69;4256819;28;20229;-70
2024/01/08 00:25:10;;;;;;;21.13;7.17;;;;;;;-10.73;75.05;101001.34;4263806;28;20282;-70
2024/01/08 00:27:37;;;;;;;22.17;7.07;;;;;;;-10.76;75.31;100996.09;4244535;28;20237;-68
2024/01/08 00:30:04;;;;;;;17.80;6.40;;;;;;;-10.71;75.57;100998.72;4247861;28;20238;-70
2024/01/08 00:32:31;;;;;;;21.27;7.13;;;;;;;-10.74;76.17;100996.09;4255179;28;20307;-70
2024/01/08 00:34:58;;;;;;;23.17;6.63;;;;;;;-10.75;75.52;100997.84;4238583;28;21007;-69
2024/01/08 00:37:25;;;;;;;24.83;6.90;;;;;;;-10.78;76.10;100992.59;4244416;28;20230;-68
2024/01/08 00:39:51;;;;;;;22.13;6.40;;;;;;;-10.79;75.61;100998.72;4247140;28;26283;-71
2024/01/08 00:42:18;;;;;;;16.33;5.60;;;;;;;-10.93;76.40;100987.38;4251809;28;20226;-70
2024/01/08 00:44:45;;;;;;;22.97;7.17;;;;;;;-10.94;76.22;101009.16;4247757;28;23636;-69
2024/01/08 00:47:11;;;;;;;25.10;5.63;;;;;;;-10.99;76.08;100993.47;4251175;28;20242;-68
2024/01/08 00:49:38;;;;;;;22.90;7.43;;;;;;;-10.94;76.53;101017.00;4263912;28;20241;-71
2024/01/08 00:52:05;;;;;;;16.53;5.03;;;;;;;-10.90;76.54;101016.16;4262322;28;20226;-69
2024/01/08 00:54:31;;;;;;;30.07;7.30;;;;;;;-10.97;77.32;101014.38;4258781;28;20224;-70
2024/01/08 00:56:58;;;;;;;25.07;7.63;;;;;;;-10.92;76.88;101015.25;4252731;28;20354;-70
2024/01/08 00:59:24;;;;;;;19.97;7.20;;;;;;;-10.97;76.95;101022.22;4249567;28;21771;-68
2024/01/08 01:01:51;;;;;;;30.03;7.33;;;;;;;-10.94;77.48;101025.72;4257116;28;20350;-69
2024/01/08 01:04:17;;;;;;;17.33;7.10;;;;;;;-10.95;77.12;101026.59;4258672;28;20236;-70
2024/01/08 01:06:44;;;;;;;25.73;7.43;;;;;;;-11.01;77.26;101027.44;4254334;28;20407;-70
2024/01/08 01:09:11;;;;;;;27.47;7.83;;;;;;;-11.03;77.65;101034.44;4253403;28;20298;-69
2024/01/08 01:11:37;;;;;;;23.43;7.67;;;;;;;-11.06;77.36;101028.28;4258464;28;20236;-73
2024/01/08 01:14:04;;;;;;;23.80;7.20;;;;;;;-11.04;77.84;101024.84;4257905;28;21785;-70
2024/01/08 01:16:32;;;;;;;25.43;8.83;;;;;;;-11.20;78.17;101026.53;4240255;28;20237;-70
2024/01/08 01:18:59;;;;;;;26.43;8.17;;;;;;;-11.22;78.91;101035.22;4256059;28;20315;-69
2024/01/08 01:21:28;;;;;;;23.10;7.20;;;;;;;-11.21;78.39;101034.38;4243529;28;20230;-69
2024/01/08 01:23:55;;;;;;;24.83;7.80;;;;;;;-11.20;78.37;101028.28;4259955;28;23702;-69
2024/01/08 01:26:21;;;;;;;33.33;8.57;;;;;;;-11.20;78.43;101029.13;4248097;28;21506;-70
2024/01/08 01:28:48;;;;;;;28.13;9.30;;;;;;;-11.38;78.60;101035.16;4255873;28;20237;-70
2024/01/08 01:31:15;;;;;;;15.47;6.10;;;;;;;-11.30;78.72;101027.38;4260143;28;20241;-69
2024/01/08 01:33:42;;;;;;;27.63;7.27;;;;;;;-11.39;79.26;101040.41;4262321;28;20225;-71
2024/01/08 01:36:09;;;;;;;26.07;8.27;;;;;;;-11.45;79.78;101048.22;4255024;28;22854;-69
2024/01/08 01:38:35;;;;;;;26.20;8.40;;;;;;;-11.44;80.02;101047.34;4250852;28;20233;-71
2024/01/08 01:41:02;;;;;;;24.50;7.63;;;;;;;-11.50;80.34;101046.44;4249342;28;20259;-69
2024/01/08 01:43:29;;;;;;;20.17;8.03;;;;;;;-11.42;80.23;101051.72;4258071;28;20229;-71
2024/01/08 01:46:00;;;;;;;24.47;7.60;;;;;;;-11.48;80.21;101052.56;4256369;28;20284;-71
2024/01/08 01:48:28;;;;;;;21.90;7.07;;;;;;;-11.49;80.16;101055.16;4255491;28;20233;-71
2024/01/08 01:50:56;;;;;;;22.70;7.53;;;;;;;-11.52;79.58;101060.38;4257650;28;20632;-71
2024/01/08 01:53:23;;;;;;;28.77;8.23;;;;;;;-11.56;79.57;101056.88;4258990;28;20631;-70
2024/01/08 01:55:52;;;;;;;22.10;7.13;;;;;;;-11.60;79.72;101060.34;4246800;28;20247;-70
2024/01/08 01:58:19;;;;;;;24.90;7.90;;;;;;;-11.64;80.01;101056.84;4258240;28;20302;-71
2024/01/08 02:00:46;;;;;;;23.07;7.07;;;;;;;-11.63;79.72;101063.78;4256352;28;20234;-70
2024/01/08 02:03:13;;;;;;;25.57;7.97;;;;;;;-11.74;80.18;101060.25;4255609;28;20260;-70
2024/01/08 02:05:41;;;;;;;22.10;7.57;;;;;;;-11.65;79.30;101062.94;4252782;28;20690;-71
2024/01/08 02:08:09;;;;;;;24.70;7.80;;;;;;;-11.57;79.74;101069.94;4261857;28;21782;-69
2024/01/08 02:10:39;;;;;;;23.03;6.93;;;;;;;-11.65;79.58;101075.09;4260815;28;21907;-71
2024/01/08 02:13:07;;;;;;;20.30;7.70;;;;;;;-11.75;80.01;101071.56;4258383;28;25189;-69
2024/01/08 02:15:33;;;;;;;22.53;7.37;;;;;;;-11.65;79.75;101081.22;4259070;28;20291;-69
2024/01/08 02:18:00;;;;;;;22.50;7.43;;;;;;;-11.65;79.36;101075.09;4256933;28;20564;-68
2024/01/08 02:20:27;;;;;;;27.97;7.33;;;;;;;-11.65;79.66;101077.72;4271173;28;20225;-70
2024/01/08 02:22:53;;;;;;;21.77;7.47;;;;;;;-11.69;79.90;101071.59;4237103;28;20287;-71
2024/01/08 02:25:20;;;;;;;23.13;8.77;;;;;;;-11.86;80.34;101079.34;4258748;28;20609;-68
2024/01/08 02:27:46;;;;;;;25.40;8.40;;;;;;;-11.79;79.84;101095.94;4244114;28;21745;-68
2024/01/08 02:30:13;;;;;;;24.93;7.70;;;;;;;-11.79;80.41;101098.53;4249619;28;22108;-68
2024/01/08 02:32:40;;;;;;;22.57;7.87;;;;;;;-11.82;80.69;101106.34;4250022;28;22317;-69
2024/01/08 02:35:07;;;;;;;27.17;7.77;;;;;;;-11.71;80.33;101106.41;4255543;28;20233;-71
2024/01/08 02:37:33;;;;;;;25.40;7.67;;;;;;;-11.84;80.14;101105.44;4260319;28;22642;-69
2024/01/08 02:40:01;;;;;;;25.87;7.83;;;;;;;-11.86;80.17;101115.88;4263426;28;21137;-70
2024/01/08 02:42:27;;;;;;;21.20;6.73;;;;;;;-11.77;79.90;101114.22;4261390;28;20336;-69
2024/01/08 02:44:56;;;;;;;24.23;8.17;;;;;;;-11.86;79.93;101118.50;4256065;28;20245;-70
2024/01/08 02:47:22;;;;;;;28.47;7.17;;;;;;;-11.92;79.36;101105.41;4258610;28;22771;-69
2024/01/08 02:49:49;;;;;;;22.23;6.97;;;;;;;-11.89;79.46;101115.84;4260505;28;20237;-71
2024/01/08 02:52:15;;;;;;;23.23;7.80;;;;;;;-11.96;79.81;101120.19;4264520;28;20303;-70
2024/01/08 02:54:42;;;;;;;21.77;7.07;;;;;;;-11.97;79.81;101115.84;4257717;28;21861;-70
2024/01/08 02:57:09;;;;;;;26.00;7.37;;;;;;;-11.99;79.93;101119.31;4258435;28;20233;-70
2024/01/08 02:59:35;;;;;;;23.40;8.33;;;;;;;-12.10;80.16;101129.66;4259830;28;20587;-68
2024/01/08 03:02:02;;;;;;;19.13;7.17;;;;;;;-11.83;80.11;101133.31;4248636;28;22224;-71
2024/01/08 03:04:28;;;;;;;26.60;7.10;;;;;;;-11.93;79.49;101132.38;4254857;28;20324;-71
2024/01/08 03:06:55;;;;;;;20.70;7.03;;;;;;;-12.00;80.06;101138.44;4266698;28;20393;-70
2024/01/08 03:09:22;;;;;;;16.97;7.07;;;;;;;-12.04;79.81;101134.03;4260689;28;21546;-71
2024/01/08 03:11:49;;;;;;;22.17;7.67;;;;;;;-12.19;80.06;101150.47;4257919;28;20225;-70
2024/01/08 03:14:15;;;;;;;20.40;6.50;;;;;;;-12.19;80.18;101148.72;4254267;28;22699;-69
2024/01/08 03:16:42;;;;;;;20.23;7.70;;;;;;;-12.11;80.12;101146.19;4246777;28;20526;-68
2024/01/08 03:19:08;;;;;;;30.13;9.70;;;;;;;-12.27;80.97;101152.97;4258197;28;20627;-69
2024/01/08 03:21:35;;;;;;;23.77;7.03;;;;;;;-12.20;80.80;101151.31;4250238;28;21309;-69
2024/01/08 03:24:01;;;;;;;26.57;9.10;;;;;;;-12.24;79.79;101160.00;4255289;28;20282;-70
2024/01/08 03:26:28;;;;;;;22.90;7.93;;;;;;;-12.34;79.98;101152.06;4258230;28;20446;-69
2024/01/08 03:28:55;;;;;;;18.07;5.90;;;;;;;-12.29;79.59;101152.97;4278135;28;20296;-68
2024/01/08 03:31:21;;;;;;;27.03;7.37;;;;;;;-12.37;79.82;101159.00;4240852;28;20305;-70
2024/01/08 03:33:48;;;;;;;23.77;7.53;;;;;;;-12.43;79.79;101157.19;4257958;28;23410;-69
2024/01/08 03:36:15;;;;;;;30.23;7.33;;;;;;;-12.41;79.93;101160.69;4262007;28;20236;-71
2024/01/08 03:38:42;;;;;;;18.20;7.60;;;;;;;-12.47;79.97;101168.47;4258611;28;21779;-70
2024/01/08 03:41:08;;;;;;;23.03;6.83;;;;;;;-12.53;79.47;101165.78;4257004;28;22455;-71
2024/01/08 03:43:35;;;;;;;14.53;5.50;;;;;;;-12.50;79.34;101169.28;4258956;28;20287;-72
2024/01/08 03:46:01;;;;;;;23.33;7.93;;;;;;;-12.55;79.46;101176.19;4260168;28;20521;-70
2024/01/08 03:48:28;;;;;;;20.67;7.63;;;;;;;-12.59;79.36;101169.22;4257455;28;20331;-70
2024/01/08 03:50:55;;;;;;;22.43;7.73;;;;;;;-12.56;79.54;101174.44;4253407;28;20229;-68
2024/01/08 03:53:21;;;;;;;22.30;6.77;;;;;;;-12.47;80.22;101178.91;4277027;28;20225;-70
2024/01/08 03:55:48;;;;;;;25.37;7.60;;;;;;;-12.41;79.67;101184.19;4261506;28;20294;-72
2024/01/08 03:58:15;;;;;;;22.97;8.07;;;;;;;-12.57;79.85;101185.72;4255348;28;20236;-73
2024/01/08 04:00:41;;;;;;;31.00;9.20;;;;;;;-12.63;79.71;101185.66;4252054;28;20234;-69
2024/01/08 04:03:08;;;;;;;22.73;7.23;;;;;;;-12.67;80.11;101199.53;4264879;28;20264;-70
2024/01/08 04:05:34;;;;;;;24.00;7.47;;;;;;;-12.70;79.83;101194.28;4258893;28;22169;-72
2024/01/08 04:08:01;;;;;;;26.87;7.53;;;;;;;-12.63;79.84;101198.69;4255520;28;20235;-69
2024/01/08 04:10:28;;;;;;;24.30;8.37;;;;;;;-12.67;80.23;101196.94;4253990;28;21663;-71
2024/01/08 04:12:55;;;;;;;26.97;8.63;;;;;;;-12.66;79.88;101201.28;4259923;28;23474;-68
2024/01/08 04:15:21;;;;;;;23.67;7.37;;;;;;;-12.62;79.03;101203.97;4270856;28;22097;-69
2024/01/08 04:17:48;;;;;;;16.17;6.07;;;;;;;-12.69;78.70;101206.47;4238444;28;20229;-70
2024/01/08 04:20:14;;;;;;;20.17;7.17;;;;;;;-12.68;78.58;101208.22;4264862;28;20803;-71
2024/01/08 04:22:44;;;;;;;23.77;9.40;;;;;;;-12.77;78.80;101196.81;4242821;28;22286;-69
2024/01/08 04:25:11;;;;;;;22.67;7.77;;;;;;;-12.76;79.45;101211.59;4260771;28;20235;-71
2024/01/08 04:27:37;;;;;;;24.60;7.77;;;;;;;-12.69;78.75;101215.19;4253714;28;20228;-68
2024/01/08 04:30:05;;;;;;;15.67;5.50;;;;;;;-12.79;78.70;101221.97;4254748;28;23203;-72
2024/01/08 04:32:31;;;;;;;21.20;6.67;;;;;;;-12.70;78.80;101221.25;4254413;28;20324;-71
2024/01/08 04:34:58;;;;;;;27.30;6.97;;;;;;;-12.67;78.82;101221.25;4255797;28;20555;-70
2024/01/08 04:37:26;;;;;;;24.37;8.20;;;;;;;-12.68;79.17;101221.25;4251528;28;20866;-68
2024/01/08 04:39:53;;;;;;;22.73;6.57;;;;;;;-12.61;79.51;101225.69;4255646;28;21230;-71
2024/01/08 04:42:20;;;;;;;21.80;6.97;;;;;;;-12.65;79.32;101236.94;4259613;28;20239;-70
2024/01/08 04:44:47;;;;;;;24.40;7.70;;;;;;;-12.56;78.52;101230.97;4257578;28;20380;-69
2024/01/08 04:47:13;;;;;;;23.97;7.90;;;;;;;-12.68;78.79;101221.25;4251289;28;20245;-70
2024/01/08 04:49:40;;;;;;;24.70;8.60;;;;;;;-12.70;78.50;101226.47;4255073;28;22438;-69
2024/01/08 04:52:07;;;;;;;21.33;7.13;;;;;;;-12.72;78.50;101235.13;4254538;28;22607;-70
2024/01/08 04:54:33;;;;;;;24.23;8.40;;;;;;;-12.85;79.18;101241.91;4258895;28;20226;-69
2024/01/08 04:57:00;;;;;;;20.93;8.43;;;;;;;-12.87;79.24;101243.59;4251551;28;20229;-69
2024/01/08 04:59:26;;;;;;;25.27;7.47;;;;;;;-12.97;79.62;101240.00;4251563;28;20229;-69
2024/01/08 05:01:53;;;;;;;17.87;6.47;;;;;;;-12.82;78.91;101241.94;4255808;28;20306;-70
2024/01/08 05:04:20;;;;;;;18.73;6.10;;;;;;;-12.83;78.99;101251.50;4250569;28;20255;-68
2024/01/08 05:06:47;;;;;;;29.97;8.60;;;;;;;-13.03;78.87;101246.00;4250477;28;21461;-70
2024/01/08 05:09:14;;;;;;;25.87;7.67;;;;;;;-12.84;78.66;101261.91;4256386;28;20266;-71
2024/01/08 05:11:40;;;;;;;22.77;7.90;;;;;;;-13.10;79.21;101258.06;4260488;28;20229;-69
2024/01/08 05:14:10;;;;;;;20.47;7.43;;;;;;;-12.97;79.16;101256.50;4255488;28;20245;-71
2024/01/08 05:16:37;;;;;;;17.90;6.43;;;;;;;-12.95;79.43;101262.63;4255009;28;21138;-70
2024/01/08 05:19:03;;;;;;;29.00;7.27;;;;;;;-13.06;79.25;101265.09;4261851;28;21166;-70
2024/01/08 05:21:30;;;;;;;16.73;7.27;;;;;;;-13.03;78.86;101271.22;4258099;28;23637;-70
2024/01/08 05:23:56;;;;;;;29.47;7.87;;;;;;;-13.05;79.29;101271.16;4257215;28;22343;-70
2024/01/08 05:26:23;;;;;;;23.20;5.80;;;;;;;-13.02;78.14;101283.34;4251023;28;20299;-69
2024/01/08 05:28:49;;;;;;;19.33;6.07;;;;;;;-13.02;77.95;101289.47;4256036;28;20410;-69
2024/01/08 05:31:16;;;;;;;22.77;6.20;;;;;;;-13.21;78.41;101285.69;4256931;28;20781;-71
2024/01/08 05:33:43;;;;;;;17.03;6.43;;;;;;;-13.24;78.41;101285.66;4253423;28;20225;-72
2024/01/08 05:36:10;;;;;;;17.13;7.17;;;;;;;-13.25;78.35;101283.88;4256033;28;20268;-70
2024/01/08 05:38:36;;;;;;;20.67;7.00;;;;;;;-13.28;78.64;101291.69;4252631;28;21912;-70
2024/01/08 05:41:03;;;;;;;22.80;8.70;;;;;;;-13.35;78.46;101300.25;4259972;28;20539;-71
2024/01/08 05:43:29;;;;;;;20.43;7.00;;;;;;;-13.47;78.63;101300.94;4256244;28;21632;-70
2024/01/08 05:45:56;;;;;;;20.50;5.53;;;;;;;-13.35;78.67;101292.44;4245368;28;20998;-68
2024/01/08 05:48:23;;;;;;;23.43;7.83;;;;;;;-13.31;78.12;101313.34;4255111;28;20376;-70
2024/01/08 05:50:50;;;;;;;19.10;6.73;;;;;;;-13.31;78.02;101315.94;4259635;28;20612;-71
2024/01/08 05:53:16;;;;;;;25.93;7.77;;;;;;;-13.46;78.01;101306.19;4256452;28;20231;-71
2024/01/08 05:55:43;;;;;;;14.83;6.53;;;;;;;-13.46;78.15;101314.00;4252860;28;25051;-71
2024/01/08 05:58:10;;;;;;;16.37;5.27;;;;;;;-13.45;78.74;101315.75;4246907;28;20232;-72
2024/01/08 06:00:36;;;;;;;32.93;8.30;;;;;;;-13.57;78.47;101311.22;4257642;28;21693;-69
2024/01/08 06:03:03;;;;;;;22.60;6.70;;;;;;;-13.56;78.15;101312.97;4252287;28;23011;-71
2024/01/08 06:05:29;;;;;;;15.87;5.13;;;;;;;-13.54;78.38;101310.38;4252397;28;20229;-71
2024/01/08 06:07:56;;;;;;;13.03;5.27;;;;;;;-13.48;77.52;101310.47;4260923;28;20245;-71
2024/01/08 06:10:23;;;;;;;20.20;5.77;;;;;;;-13.51;77.83;101318.25;4264925;28;20225;-67
2024/01/08 06:12:49;;;;;;;21.43;6.37;;;;;;;-13.59;77.76;101314.63;4236687;28;21213;-68
2024/01/08 06:15:16;;;;;;;15.20;5.37;;;;;;;-13.70;78.09;101317.91;4255451;28;20271;-69
2024/01/08 06:17:44;;;;;;;23.17;6.97;;;;;;;-13.65;78.41;101323.22;4267856;28;20372;-69
2024/01/08 06:20:12;;;;;;;18.70;5.67;;;;;;;-13.72;78.41;101342.19;4264923;28;20306;-71
2024/01/08 06:22:39;;;;;;;19.10;7.13;;;;;;;-13.52;79.65;101333.88;4258916;28;20581;-74
2024/01/08 06:25:06;;;;;;;15.87;6.23;;;;;;;-13.55;78.37;101335.56;4268201;28;20264;-74
2024/01/08 06:27:33;;;;;;;20.03;6.60;;;;;;;-13.62;78.49;101331.09;4258426;28;20233;-74
2024/01/08 06:30:00;;;;;;;19.50;7.27;;;;;;;-13.64;78.24;101340.59;4267621;28;20666;-74
2024/01/08 06:32:26;;;;;;;19.40;7.20;;;;;;;-13.65;78.55;101336.22;4257251;28;20932;-74
2024/01/08 06:34:55;;;;;;;22.53;5.70;;;;;;;-13.73;78.88;101345.63;4268981;28;22493;-74
2024/01/08 06:37:22;;;;;;;18.40;5.60;;;;;;;-13.70;78.62;101341.34;4269418;28;22879;-75
2024/01/08 06:39:49;;;;;;;23.10;6.83;;;;;;;-13.72;79.01;101340.47;4266333;28;20240;-78
2024/01/08 06:42:15;;;;;;;17.60;6.47;;;;;;;-13.71;79.06;101344.78;4270864;28;20346;-74
2024/01/08 06:44:43;;;;;;;22.47;7.53;;;;;;;-13.77;79.01;101341.22;4259990;28;25714;-78
2024/01/08 06:47:09;;;;;;;25.43;9.17;;;;;;;-13.74;78.63;101352.56;4265924;28;22606;-76
2024/01/08 06:49:36;;;;;;;20.57;7.17;;;;;;;-13.66;78.45;101357.91;4254534;28;20247;-75
2024/01/08 06:52:03;;;;;;;25.53;7.17;;;;;;;-13.60;78.70;101354.53;4263691;28;20247;-76
2024/01/08 06:54:29;;;;;;;20.67;7.23;;;;;;;-13.58;78.40;101352.84;4260201;28;20239;-77
2024/01/08 06:56:57;;;;;;;17.53;6.30;;;;;;;-13.64;78.54;101360.56;4264547;28;20237;-76
2024/01/08 06:59:24;;;;;;;25.50;9.33;;;;;;;-13.78;79.15;101361.16;4271179;28;20493;-76
2024/01/08 07:01:51;;;;;;;21.70;6.83;;;;;;;-13.66;79.12;101364.84;4257060;28;20634;-79
2024/01/08 07:04:18;;;;;;;21.67;7.00;;;;;;;-13.67;78.63;101361.38;4269194;28;20301;-76
2024/01/08 07:06:45;;;;;;;24.53;7.43;;;;;;;-13.71;79.06;101362.16;4259758;28;20274;-79
2024/01/08 07:09:12;;;;;;;23.07;6.97;;;;;;;-13.68;79.27;101363.94;4258427;28;20588;-79
2024/01/08 07:11:38;;;;;;;30.23;8.50;;;;;;;-13.52;78.53;101371.19;4255573;28;20424;-77
2024/01/08 07:14:05;;;;;;;27.33;7.30;;;;;;;-13.57;78.80;101370.22;4256240;28;20448;-77
2024/01/08 07:16:32;;;;;;;23.10;9.17;;;;;;;-13.67;78.66;101382.22;4259031;28;20225;-76
2024/01/08 07:18:58;;;;;;;21.03;6.90;;;;;;;-13.42;78.21;101386.13;4256502;28;20695;-78
2024/01/08 07:21:25;;;;;;;24.43;7.93;;;;;;;-13.59;78.20;101377.13;4257343;28;21136;-77
2024/01/08 07:23:52;;;;;;;26.20;7.77;;;;;;;-13.51;78.22;101387.66;4256614;28;20318;-73
2024/01/08 07:26:18;;;;;;;20.17;6.70;;;;;;;-13.34;77.83;101388.81;4249280;28;21747;-78
2024/01/08 07:28:46;;;;;;;18.70;6.50;;;;;;;-13.36;78.06;101400.94;4254909;28;20417;-79
2024/01/08 07:31:15;;;;;;;33.67;8.50;;;;;;;-13.26;77.99;101404.59;4261115;28;21603;-77
2024/01/08 07:33:42;;;;;;;22.23;6.27;;;;;;;-13.43;77.52;101397.41;4248683;28;23835;-79
2024/01/08 07:36:09;;;;;;;25.10;8.03;;;;;;;-13.35;77.89;101404.44;4280599;28;22743;-80
2024/01/08 07:38:36;;;;;;;22.57;7.77;;;;;;;-13.22;76.85;101404.69;4256962;28;20225;-79
2024/01/08 07:41:06;;;;;;;24.67;7.60;;;;;;;-13.30;77.27;101398.47;4260783;28;21336;-79
2024/01/08 07:43:35;;;;;;;24.70;7.60;;;;;;;-13.20;77.13;101409.03;4243173;28;20392;-75
2024/01/08 07:46:02;;;;;;;20.63;7.50;;;;;;;-13.14;77.05;101419.59;4272482;28;20229;-79
2024/01/08 07:48:29;;;;;;;21.47;8.57;;;;;;;-13.17;77.53;101427.34;4256209;28;20233;-76
2024/01/08 07:50:56;;;;;;;33.67;8.07;;;;;;;-13.19;77.07;101429.03;4275298;28;21832;-77
2024/01/08 07:53:22;;;;;;;23.20;7.23;;;;;;;-12.99;77.00;101439.78;4280526;28;20229;-75
2024/01/08 07:55:49;;;;;;;24.13;7.03;;;;;;;-12.98;76.69;101437.22;4264141;28;20248;-80
2024/01/08 07:58:17;;;;;;;24.13;7.77;;;;;;;-13.00;77.35;101441.53;4247254;28;20380;-79
2024/01/08 08:00:53;;;;;;;27.37;7.87;;;;;;;-12.91;76.44;101439.06;4263810;28;20316;-80
2024/01/08 08:03:20;;;;;;;31.93;10.37;;;;;;;-12.87;76.65;101449.56;4295724;28;20345;-76
2024/01/08 08:05:47;;;;;;;22.43;7.97;;;;;;;-12.76;75.97;101455.81;4287053;28;22260;-80
2024/01/08 08:08:14;;;;;;;17.97;6.53;;;;;;;-12.64;75.67;101450.81;4253959;28;20589;-76
2024/01/08 08:10:41;;;;;;;23.50;7.97;;;;;;;-12.64;75.54;101458.63;4234240;28;20230;-77
2024/01/08 08:13:07;;;;;;;31.40;8.50;;;;;;;-12.44;75.23;101458.94;4254785;28;20314;-79
2024/01/08 08:15:34;;;;;;;27.37;8.90;;;;;;;-12.57;75.62;101471.75;4258574;28;21090;-77
2024/01/08 08:18:01;;;;;;;25.67;7.80;;;;;;;-12.55;75.26;101470.06;4260297;28;20240;-78
2024/01/08 08:20:30;;;;;;;28.57;6.53;;;;;;;-12.43;75.29;101471.13;4269472;28;20241;-73
2024/01/08 08:22:59;;;;;;;22.77;7.43;;;;;;;-12.24;74.76;101480.97;4252481;28;21694;-79
2024/01/08 08:25:26;;;;;;;32.27;8.27;;;;;;;-12.27;74.62;101474.84;4281432;28;20240;-81
2024/01/08 08:27:52;;;;;;;24.63;8.40;;;;;;;-11.97;73.06;101494.41;4254296;28;20595;-71
2024/01/08 08:30:22;;;;;;;25.10;7.57;;;;;;;-11.99;73.17;101495.25;4249691;28;20698;-68
2024/01/08 08:32:50;;;;;;;23.07;8.00;;;;;;;-11.95;72.59;101502.22;4291101;28;20230;-69
2024/01/08 08:35:17;;;;;;;29.57;7.50;;;;;;;-12.11;72.59;101501.16;4290585;28;20228;-67
2024/01/08 08:37:47;;;;;;;22.30;8.93;;;;;;;-12.03;72.47;101503.88;4323565;28;22839;-71
2024/01/08 08:40:21;;;;;;;24.03;7.77;;;;;;;-11.92;72.85;101509.22;4269069;28;20244;-69
2024/01/08 08:42:48;;;;;;;20.17;7.37;;;;;;;-11.93;72.06;101508.34;4279698;28;20271;-70
2024/01/08 08:45:17;;;;;;;25.90;8.70;;;;;;;-11.77;72.69;101512.03;4256919;28;20772;-69
2024/01/08 08:47:44;;;;;;;25.97;7.97;;;;;;;-10.68;69.43;101516.72;4274584;28;20233;-69
2024/01/08 08:50:14;;;;;;;28.97;8.47;;;;;;;-9.57;65.80;101511.31;4281026;28;21043;-69
2024/01/08 08:52:43;;;;;;;28.73;8.80;;;;;;;-9.06;62.75;101524.63;4281427;28;21171;-67
2024/01/08 08:55:12;;;;;;;28.63;8.60;;;;;;;-7.73;59.34;101510.56;4277518;28;20609;-71
2024/01/08 08:57:39;;;;;;;17.10;6.20;;;;;;;-7.46;56.73;101512.25;4294973;28;21382;-67
2024/01/08 09:00:09;;;;;;;23.20;7.97;;;;;;;-8.24;57.58;101523.78;4256506;28;22121;-69
2024/01/08 09:02:37;;;;;;;19.17;7.97;;;;;;;-8.33;58.30;101527.31;4274927;28;20230;-70
2024/01/08 09:05:07;;;;;;;23.57;8.00;;;;;;;-7.30;56.94;101527.97;4274582;28;20230;-67
2024/01/08 09:07:35;;;;;;;21.27;7.90;;;;;;;-7.61;55.99;101541.22;4259980;28;20249;-68
2024/01/08 09:10:03;;;;;;;22.73;7.50;;;;;;;-8.05;57.57;101538.69;4269463;28;20234;-74
2024/01/08 09:12:30;;;;;;;29.17;9.10;;;;;;;-7.87;57.05;101535.16;4258472;28;21436;-77
2024/01/08 09:14:56;;;;;;;20.03;7.20;;;;;;;-7.00;54.52;101540.06;4293445;28;20310;-79
2024/01/08 09:17:23;;;;;;;18.93;7.83;;;;;;;-7.90;55.54;101543.03;4266442;28;20846;-74
2024/01/08 09:19:52;;;;;;;26.17;9.00;;;;;;;-6.81;54.15;101545.25;4256395;28;20236;-81
2024/01/08 09:22:23;;;;;;;21.43;7.67;;;;;;;-7.24;54.02;101541.09;4257344;28;20237;-74
2024/01/08 09:24:50;;;;;;;27.73;9.47;;;;;;;-6.95;54.16;101545.31;4291488;28;20401;-79
2024/01/08 09:27:17;;;;;;;24.93;8.20;;;;;;;-6.03;52.29;101556.09;4271781;28;25324;-79
2024/01/08 09:29:43;;;;;;;24.27;7.93;;;;;;;-5.75;50.46;101556.66;4279799;28;23347;-77
2024/01/08 09:32:10;;;;;;;24.90;7.77;;;;;;;-5.58;49.85;101559.97;4251499;28;20904;-77
2024/01/08 09:34:37;;;;;;;20.70;7.40;;;;;;;-5.86;49.18;101553.25;4266672;28;21247;-78
2024/01/08 09:37:04;;;;;;;19.10;7.17;;;;;;;-4.21;46.53;101553.75;4246789;28;21331;-82
2024/01/08 09:39:32;;;;;;;20.37;6.80;;;;;;;-4.88;46.72;101567.09;4283536;28;21755;-73
2024/01/08 09:42:01;;;;;;;21.03;7.60;;;;;;;-4.17;45.45;101544.84;4256969;28;20805;-81
2024/01/08 09:44:29;;;;;;;26.77;8.27;;;;;;;-4.93;45.75;101563.63;4278546;28;22210;-74
2024/01/08 09:46:56;;;;;;;23.67;7.57;;;;;;;-5.42;47.18;101565.09;4273921;28;20288;-78
2024/01/08 09:49:24;;;;;;;23.50;8.10;;;;;;;-5.50;48.08;101569.56;4266974;28;20225;-76
2024/01/08 09:51:50;;;;;;;25.83;7.30;;;;;;;-5.18;46.94;101561.31;4257078;28;20233;-76
2024/01/08 09:54:20;;;;;;;24.97;8.23;;;;;;;-5.87;48.07;101562.94;4259844;28;20282;-77
2024/01/08 09:56:53;;;;;;;26.37;8.07;;;;;;;-6.46;49.63;101570.47;4261353;28;21269;-75
2024/01/08 09:59:22;;;;;;;24.40;8.37;;;;;;;-6.14;49.44;101564.94;4255079;28;21627;-76
2024/01/08 10:01:48;;;;;;;22.43;7.30;;;;;;;-6.13;49.38;101568.47;4286768;28;20266;-80
2024/01/08 10:04:16;;;;;;;22.73;7.53;;;;;;;-4.73;46.82;101558.06;4279393;28;21609;-77
2024/01/08 10:06:47;;;;;;;27.73;7.77;;;;;;;-4.02;45.67;101559.59;4246500;28;20643;-79
2024/01/08 10:09:13;;;;;;;24.57;8.50;;;;;;;-3.07;42.75;101563.97;4294050;28;21207;-78
2024/01/08 10:11:41;;;;;;;26.20;8.00;;;;;;;-4.61;44.88;101552.59;4264898;28;20976;-82
2024/01/08 10:14:08;;;;;;;20.77;8.10;;;;;;;-5.61;46.39;101560.03;4284085;28;21741;-80
2024/01/08 10:16:35;;;;;;;20.73;7.70;;;;;;;-5.64;48.00;101552.13;4311734;28;20413;-81
2024/01/08 10:19:23;;;;;;;30.20;8.37;;;;;;;-5.16;46.42;101551.59;4265798;28;22574;-78
2024/01/08 10:22:08;;;;;;;21.50;7.67;;;;;;;-3.89;44.77;101556.72;4260655;28;20424;-76
2024/01/08 10:24:38;;;;;;;21.43;7.47;;;;;;;-4.62;46.14;101555.25;4274766;28;21876;-78
2024/01/08 10:27:06;;;;;;;29.90;8.57;;;;;;;-4.36;46.45;101567.22;4287515;28;20244;-79
2024/01/08 10:29:35;;;;;;;23.33;8.00;;;;;;;-3.54;44.08;101563.13;4277853;28;20229;-75
2024/01/08 10:32:04;;;;;;;26.57;8.53;;;;;;;-3.74;44.12;101555.59;4270107;28;21780;-78
2024/01/08 10:34:33;;;;;;;22.57;7.83;;;;;;;-4.37;44.98;101561.03;4274373;28;21437;-80
2024/01/08 10:37:00;;;;;;;26.43;7.80;;;;;;;-3.63;44.59;101569.50;4280001;28;20233;-79
2024/01/08 10:39:31;;;;;;;25.17;8.47;;;;;;;-3.61;44.56;101567.69;4291144;28;21161;-81
2024/01/08 10:42:14;;;;;;;25.90;8.43;;;;;;;-4.61;45.35;101563.16;4281689;28;20237;-81
2024/01/08 10:44:40;;;;;;;24.10;7.77;;;;;;;-4.93;45.73;101590.91;4280885;28;20306;-77
2024/01/08 10:47:14;;;;;;;25.20;8.13;;;;;;;-5.33;47.57;101574.69;4320005;28;20233;-78
2024/01/08 10:49:49;;;;;;;23.03;8.00;;;;;;;-6.12;48.95;101571.09;4368055;28;20260;-79
2024/01/08 10:52:27;;;;;;;23.90;8.90;;;;;;;-6.19;49.44;101569.41;4300488;28;20309;-78
2024/01/08 10:54:56;;;;;;;26.30;8.73;;;;;;;-5.69;50.47;101571.53;4330257;28;20312;-83
2024/01/08 10:57:50;;;;;;;27.70;9.30;;;;;;;-4.11;46.45;101567.69;4285447;28;20302;-78
2024/01/08 11:00:18;;;;;;;27.27;8.20;;;;;;;-4.95;46.95;101566.28;4269601;28;20377;-82
2024/01/08 11:02:45;;;;;;;19.90;7.70;;;;;;;-4.20;46.46;101562.53;4280534;28;22672;-75
2024/01/08 11:05:13;;;;;;;23.17;7.40;;;;;;;-3.62;45.38;101567.69;4270285;28;20403;-72
2024/01/08 11:07:41;;;;;;;23.87;8.37;;;;;;;-2.49;42.29;101573.31;4268676;28;20300;-81
2024/01/08 11:10:11;;;;;;;28.47;8.73;;;;;;;-3.15;43.08;101575.66;4261022;28;20225;-72
2024/01/08 11:12:40;;;;;;;26.13;8.53;;;;;;;-5.19;47.01;101583.31;4270182;28;20242;-71